createdAt,value
2019-05-23T00:00:29.483Z,6.10
2019-05-23T00:02:58.872Z,6.10
2019-05-23T00:05:49.709Z,6.00
2019-05-23T00:08:24.151Z,5.90
2019-05-23T00:11:22.195Z,5.90
2019-05-23T00:14:00.492Z,5.80
2019-05-23T00:16:30.859Z,5.80
2019-05-23T00:19:00.426Z,5.70
2019-05-23T00:21:30.978Z,5.70
2019-05-23T00:24:01.461Z,5.60
2019-05-23T00:26:31.247Z,5.60
2019-05-23T00:29:09.994Z,5.50
2019-05-23T00:31:45.390Z,5.50
2019-05-23T00:34:15.419Z,5.50
2019-05-23T00:36:46.764Z,5.50
2019-05-23T00:39:16.815Z,5.40
2019-05-23T00:41:47.895Z,5.40
2019-05-23T00:44:18.082Z,5.40
2019-05-23T00:46:47.418Z,5.40
2019-05-23T00:49:16.744Z,5.40
2019-05-23T00:51:46.439Z,5.30
2019-05-23T00:54:15.851Z,5.30
2019-05-23T00:56:45.615Z,5.30
2019-05-23T00:59:26.470Z,5.30
2019-05-23T01:01:48.340Z,5.30
2019-05-23T01:04:18.123Z,5.30
2019-05-23T01:06:47.974Z,5.20
2019-05-23T01:09:16.839Z,5.20
2019-05-23T01:11:46.420Z,5.20
2019-05-23T01:14:16.274Z,5.20
2019-05-23T01:16:45.710Z,5.20
2019-05-23T01:19:15.337Z,5.20
2019-05-23T01:22:01.813Z,5.10
2019-05-23T01:24:54.752Z,5.10
2019-05-23T01:27:24.059Z,5.10
2019-05-23T01:29:54.757Z,5.10
2019-05-23T01:32:27.833Z,5.00
2019-05-23T01:34:57.992Z,4.90
2019-05-23T01:37:26.801Z,4.80
2019-05-23T01:39:56.232Z,4.80
2019-05-23T01:42:26.653Z,4.80
2019-05-23T01:44:57.654Z,4.80
2019-05-23T01:47:27.417Z,4.80
2019-05-23T01:49:56.752Z,4.80
2019-05-23T01:52:26.537Z,4.80
2019-05-23T01:54:55.581Z,4.80
2019-05-23T01:57:25.034Z,4.70
2019-05-23T02:00:08.846Z,4.70
2019-05-23T02:02:27.198Z,4.60
2019-05-23T02:04:56.498Z,4.60
2019-05-23T02:07:26.282Z,4.50
2019-05-23T02:09:55.511Z,4.60
2019-05-23T02:12:24.688Z,4.60
2019-05-23T02:14:54.805Z,4.60
2019-05-23T02:17:24.202Z,4.60
2019-05-23T02:19:53.264Z,4.70
2019-05-23T02:22:22.917Z,4.70
2019-05-23T02:24:53.185Z,4.70
2019-05-23T02:27:23.212Z,4.60
2019-05-23T02:29:52.295Z,4.50
2019-05-23T02:32:23.051Z,4.40
2019-05-23T02:34:53.207Z,4.30
2019-05-23T02:37:41.434Z,4.30
2019-05-23T02:40:24.207Z,4.40
2019-05-23T02:42:57.686Z,4.40
2019-05-23T02:45:33.837Z,4.50
2019-05-23T02:48:04.963Z,4.50
2019-05-23T02:50:44.731Z,4.60
2019-05-23T02:53:16.642Z,4.60
2019-05-23T02:55:46.690Z,4.60
2019-05-23T02:58:26.128Z,4.50
2019-05-23T03:01:20.211Z,4.40
2019-05-23T03:03:50.997Z,4.30
2019-05-23T03:06:22.103Z,4.30
2019-05-23T03:08:52.515Z,4.20
2019-05-23T03:11:39.107Z,4.10
2019-05-23T03:14:10.737Z,4.10
2019-05-23T03:16:42.989Z,4.00
2019-05-23T03:19:21.870Z,4.10
2019-05-23T03:21:54.343Z,4.20
2019-05-23T03:24:24.842Z,4.20
2019-05-23T03:27:05.313Z,4.30
2019-05-23T03:29:35.617Z,4.30
2019-05-23T03:32:16.451Z,4.30
2019-05-23T03:34:48.163Z,4.20
2019-05-23T03:37:17.400Z,4.20
2019-05-23T03:39:47.004Z,4.10
2019-05-23T03:42:16.409Z,4.10
2019-05-23T03:44:47.154Z,4.00
2019-05-23T03:47:17.580Z,4.00
2019-05-23T03:49:48.361Z,4.00
2019-05-23T03:52:18.987Z,4.00
2019-05-23T03:54:49.640Z,4.10
2019-05-23T03:57:25.301Z,4.20
2019-05-23T03:59:51.994Z,4.50
2019-05-23T04:02:23.786Z,4.90
2019-05-23T04:04:54.093Z,5.40
2019-05-23T04:07:23.962Z,5.70
2019-05-23T04:09:53.044Z,6.00
2019-05-23T04:12:22.345Z,6.20
2019-05-23T04:14:52.260Z,6.50
2019-05-23T04:17:21.813Z,6.80
2019-05-23T04:19:51.279Z,7.20
2019-05-23T04:22:21.335Z,7.40
2019-05-23T04:24:50.113Z,7.80
2019-05-23T04:27:19.504Z,8.20
2019-05-23T04:29:49.187Z,8.60
2019-05-23T04:32:18.355Z,8.80
2019-05-23T04:34:47.701Z,9.20
2019-05-23T04:37:16.580Z,9.50
2019-05-23T04:39:46.104Z,10.10
2019-05-23T04:42:15.055Z,10.60
2019-05-23T04:44:44.881Z,10.90
2019-05-23T04:47:14.381Z,11.10
2019-05-23T04:49:44.011Z,11.00
2019-05-23T04:52:14.661Z,11.00
2019-05-23T04:54:44.086Z,11.10
2019-05-23T04:57:15.355Z,11.50
2019-05-23T04:59:44.305Z,11.50
2019-05-23T05:02:25.472Z,11.40
2019-05-23T05:04:45.997Z,11.40
2019-05-23T05:07:15.261Z,11.60
2019-05-23T05:09:44.379Z,11.80
2019-05-23T05:12:13.246Z,11.90
2019-05-23T05:14:42.220Z,11.90
2019-05-23T05:17:11.942Z,12.10
2019-05-23T05:19:41.313Z,12.40
2019-05-23T05:22:10.609Z,12.40
2019-05-23T05:24:40.319Z,12.70
2019-05-23T05:27:09.462Z,12.70
2019-05-23T05:29:38.377Z,12.80
2019-05-23T05:32:08.591Z,12.80
2019-05-23T05:34:37.662Z,12.90
2019-05-23T05:37:07.845Z,12.60
2019-05-23T05:39:36.959Z,12.30
2019-05-23T05:42:07.712Z,11.80
2019-05-23T05:44:37.432Z,11.40
2019-05-23T05:47:07.997Z,11.20
2019-05-23T05:49:36.892Z,11.30
2019-05-23T05:52:07.295Z,11.50
2019-05-23T05:54:36.506Z,11.70
2019-05-23T05:57:05.985Z,11.90
2019-05-23T05:59:35.173Z,12.20
2019-05-23T06:02:06.769Z,12.40
2019-05-23T06:04:36.132Z,12.80
2019-05-23T06:07:20.543Z,13.30
2019-05-23T06:09:50.511Z,14.10
2019-05-23T06:12:20.870Z,14.90
2019-05-23T06:14:49.670Z,15.00
2019-05-23T06:17:19.493Z,14.80
2019-05-23T06:19:48.867Z,14.90
2019-05-23T06:22:20.494Z,15.30
2019-05-23T06:24:53.822Z,15.50
2019-05-23T06:27:22.444Z,15.40
2019-05-23T06:29:51.317Z,15.20
2019-05-23T06:32:22.213Z,14.80
2019-05-23T06:34:52.330Z,14.60
2019-05-23T06:37:22.278Z,14.60
2019-05-23T06:39:51.526Z,14.50
2019-05-23T06:42:21.206Z,14.60
2019-05-23T06:44:50.963Z,14.60
2019-05-23T06:47:20.479Z,14.90
2019-05-23T06:49:49.606Z,14.80
2019-05-23T06:52:18.975Z,14.70
2019-05-23T06:54:48.167Z,15.20
2019-05-23T06:57:17.772Z,15.40
2019-05-23T06:59:46.891Z,15.40
2019-05-23T07:02:16.783Z,15.70
2019-05-23T07:04:47.700Z,15.80
2019-05-23T07:07:16.822Z,16.20
2019-05-23T07:09:46.530Z,16.50
2019-05-23T07:12:15.894Z,16.60
2019-05-23T07:14:44.753Z,16.70
2019-05-23T07:17:15.486Z,16.80
2019-05-23T07:19:44.379Z,15.90
2019-05-23T07:22:13.291Z,16.50
2019-05-23T07:24:56.843Z,16.30
2019-05-23T07:27:14.067Z,16.20
2019-05-23T07:29:43.102Z,15.90
2019-05-23T07:32:12.493Z,15.90
2019-05-23T07:34:41.605Z,16.20
2019-05-23T07:37:10.429Z,16.30
2019-05-23T07:39:39.242Z,16.30
2019-05-23T07:42:09.591Z,16.60
2019-05-23T07:44:48.008Z,16.50
2019-05-23T07:47:11.675Z,16.20
2019-05-23T07:49:40.905Z,16.40
2019-05-23T07:52:09.766Z,16.90
2019-05-23T07:54:50.738Z,16.90
2019-05-23T07:57:19.885Z,17.40
2019-05-23T07:59:49.500Z,17.50
2019-05-23T08:02:26.462Z,17.60
2019-05-23T08:04:55.551Z,17.60
2019-05-23T08:07:24.700Z,17.50
2019-05-23T08:09:53.916Z,17.60
2019-05-23T08:12:22.914Z,17.80
2019-05-23T08:14:52.209Z,17.50
2019-05-23T08:17:21.246Z,16.90
2019-05-23T08:19:50.609Z,17.50
2019-05-23T08:22:19.886Z,17.60
2019-05-23T08:24:51.362Z,17.60
2019-05-23T08:27:20.590Z,17.80
2019-05-23T08:29:49.366Z,18.20
2019-05-23T08:32:18.452Z,17.80
2019-05-23T08:34:48.014Z,18.00
2019-05-23T08:37:17.354Z,17.90
2019-05-23T08:39:47.161Z,17.50
2019-05-23T08:42:17.299Z,17.60
2019-05-23T08:44:47.400Z,17.30
2019-05-23T08:47:17.434Z,18.20
2019-05-23T08:49:46.837Z,18.30
2019-05-23T08:52:15.939Z,18.50
2019-05-23T08:54:45.485Z,18.40
2019-05-23T08:57:15.055Z,19.00
2019-05-23T08:59:44.718Z,18.80
2019-05-23T09:02:14.480Z,18.60
2019-05-23T09:05:02.247Z,18.70
2019-05-23T09:07:14.704Z,18.70
2019-05-23T09:09:45.732Z,19.20
2019-05-23T09:12:14.875Z,19.10
2019-05-23T09:14:44.189Z,18.70
2019-05-23T09:17:14.129Z,19.10
2019-05-23T09:19:43.619Z,18.80
2019-05-23T09:22:12.574Z,18.40
2019-05-23T09:24:41.746Z,18.40
2019-05-23T09:27:11.674Z,18.80
2019-05-23T09:29:40.751Z,18.80
2019-05-23T09:32:09.897Z,18.60
2019-05-23T09:34:39.004Z,18.40
2019-05-23T09:37:09.353Z,18.80
2019-05-23T09:39:38.658Z,18.70
2019-05-23T09:42:11.916Z,18.90
2019-05-23T09:44:38.531Z,19.20
2019-05-23T09:47:08.000Z,18.60
2019-05-23T09:49:37.153Z,18.60
2019-05-23T09:52:06.981Z,18.40
2019-05-23T09:54:35.895Z,18.30
2019-05-23T09:57:06.385Z,18.70
2019-05-23T09:59:35.222Z,18.30
2019-05-23T10:02:05.482Z,18.70
2019-05-23T10:04:34.761Z,18.90
2019-05-23T10:07:03.702Z,19.20
2019-05-23T10:09:32.707Z,19.30
2019-05-23T10:12:01.501Z,19.30
2019-05-23T10:14:33.303Z,18.90
2019-05-23T10:17:02.088Z,18.90
2019-05-23T10:19:30.907Z,19.20
2019-05-23T10:21:59.782Z,19.30
2019-05-23T10:24:29.094Z,18.80
2019-05-23T10:26:58.160Z,18.70
2019-05-23T10:29:27.035Z,18.80
2019-05-23T10:31:56.143Z,18.90
2019-05-23T10:34:24.961Z,18.60
2019-05-23T10:36:54.196Z,18.70
2019-05-23T10:39:23.389Z,18.90
2019-05-23T10:41:52.334Z,19.20
2019-05-23T10:44:21.193Z,19.40
2019-05-23T10:46:49.992Z,19.30
2019-05-23T10:49:18.881Z,19.10
2019-05-23T10:51:47.794Z,19.40
2019-05-23T10:54:17.030Z,19.30
2019-05-23T10:56:46.056Z,18.50
2019-05-23T10:59:15.084Z,19.00
2019-05-23T11:01:44.818Z,18.70
2019-05-23T11:04:13.751Z,19.20
2019-05-23T11:06:42.874Z,19.50
2019-05-23T11:09:12.570Z,19.10
2019-05-23T11:11:42.210Z,19.40
2019-05-23T11:14:12.048Z,19.50
2019-05-23T11:16:42.335Z,19.60
2019-05-23T11:19:12.354Z,19.40
2019-05-23T11:21:41.293Z,19.10
2019-05-23T11:24:11.486Z,19.00
2019-05-23T11:26:40.869Z,19.10
2019-05-23T11:29:09.960Z,19.20
2019-05-23T11:31:38.978Z,19.30
2019-05-23T11:34:08.046Z,19.20
2019-05-23T11:36:37.630Z,19.50
2019-05-23T11:39:08.388Z,19.20
2019-05-23T11:41:37.596Z,19.30
2019-05-23T11:44:06.827Z,19.40
2019-05-23T11:46:36.400Z,19.10
2019-05-23T11:49:06.520Z,19.10
2019-05-23T11:51:36.616Z,19.50
2019-05-23T11:54:08.866Z,19.50
2019-05-23T11:56:37.084Z,19.60
2019-05-23T11:59:06.590Z,19.40
2019-05-23T12:01:59.162Z,19.30
2019-05-23T12:04:32.595Z,19.30
2019-05-23T12:07:21.046Z,19.70
2019-05-23T12:09:50.357Z,20.00
2019-05-23T12:12:19.827Z,20.10
2019-05-23T12:14:48.667Z,19.90
2019-05-23T12:17:19.546Z,19.90
2019-05-23T12:19:49.139Z,19.90
2019-05-23T12:22:18.804Z,19.90
2019-05-23T12:24:48.102Z,19.80
2019-05-23T12:27:17.653Z,19.80
2019-05-23T12:29:46.427Z,19.90
2019-05-23T12:32:16.007Z,20.00
2019-05-23T12:35:08.080Z,20.20
2019-05-23T12:37:19.153Z,20.30
2019-05-23T12:39:46.078Z,20.20
2019-05-23T12:42:14.845Z,19.90
2019-05-23T12:44:43.616Z,20.00
2019-05-23T12:47:21.706Z,20.10
2019-05-23T12:49:55.121Z,19.60
2019-05-23T12:52:24.482Z,19.80
2019-05-23T12:54:53.964Z,20.00
2019-05-23T12:57:23.523Z,20.20
2019-05-23T12:59:52.923Z,20.10
2019-05-23T13:02:25.457Z,19.80
2019-05-23T13:04:54.718Z,20.00
2019-05-23T13:07:35.562Z,20.10
2019-05-23T13:09:55.262Z,19.90
2019-05-23T13:12:24.749Z,20.00
2019-05-23T13:14:58.468Z,20.00
2019-05-23T13:17:24.375Z,19.90
2019-05-23T13:19:53.256Z,19.70
2019-05-23T13:22:23.082Z,20.00
2019-05-23T13:24:53.420Z,19.90
2019-05-23T13:27:23.535Z,20.10
2019-05-23T13:29:53.029Z,20.30
2019-05-23T13:32:22.159Z,20.40
2019-05-23T13:34:51.024Z,20.50
2019-05-23T13:37:21.021Z,20.30
2019-05-23T13:39:50.198Z,20.40
2019-05-23T13:42:19.566Z,20.40
2019-05-23T13:44:48.814Z,20.20
2019-05-23T13:47:18.080Z,20.40
2019-05-23T13:49:46.845Z,20.10
2019-05-23T13:52:15.812Z,19.80
2019-05-23T13:54:44.574Z,19.80
2019-05-23T13:57:13.778Z,19.80
2019-05-23T13:59:43.922Z,19.70
2019-05-23T14:02:12.789Z,20.10
2019-05-23T14:04:42.536Z,20.40
2019-05-23T14:07:12.895Z,20.60
2019-05-23T14:09:42.616Z,20.70
2019-05-23T14:12:21.204Z,20.00
2019-05-23T14:14:42.538Z,20.50
2019-05-23T14:17:36.587Z,20.60
2019-05-23T14:20:06.134Z,20.40
2019-05-23T14:22:38.762Z,20.70
2019-05-23T14:25:08.034Z,20.60
2019-05-23T14:27:46.127Z,20.70
2019-05-23T14:30:47.858Z,21.10
2019-05-23T14:33:34.446Z,21.20
2019-05-23T14:36:06.118Z,20.60
2019-05-23T14:38:36.165Z,20.60
2019-05-23T14:41:06.513Z,20.90
2019-05-23T14:43:35.969Z,20.70
2019-05-23T14:46:08.253Z,20.80
2019-05-23T14:48:53.065Z,21.10
2019-05-23T14:51:28.696Z,21.00
2019-05-23T14:54:11.742Z,20.80
2019-05-23T14:56:40.795Z,20.70
2019-05-23T14:59:10.242Z,20.30
2019-05-23T15:01:39.591Z,20.00
2019-05-23T15:04:08.846Z,20.20
2019-05-23T15:06:37.903Z,20.40
2019-05-23T15:09:08.242Z,20.70
2019-05-23T15:11:38.653Z,20.50
2019-05-23T15:14:07.627Z,19.90
2019-05-23T15:16:37.199Z,20.30
2019-05-23T15:19:06.867Z,20.60
2019-05-23T15:21:35.996Z,20.70
2019-05-23T15:24:05.034Z,20.20
2019-05-23T15:26:34.444Z,20.10
2019-05-23T15:29:03.307Z,20.00
2019-05-23T15:31:32.523Z,20.20
2019-05-23T15:34:01.433Z,20.20
2019-05-23T15:36:30.562Z,20.50
2019-05-23T15:39:09.479Z,20.70
2019-05-23T15:41:30.503Z,20.70
2019-05-23T15:43:59.810Z,20.70
2019-05-23T15:46:29.414Z,20.40
2019-05-23T15:48:59.097Z,20.50
2019-05-23T15:51:33.740Z,20.50
2019-05-23T15:54:27.970Z,20.40
2019-05-23T15:57:06.451Z,20.20
2019-05-23T15:59:58.547Z,20.40
2019-05-23T16:02:34.092Z,20.20
2019-05-23T16:05:04.817Z,20.20
2019-05-23T16:07:34.995Z,19.90
2019-05-23T16:10:05.671Z,19.90
2019-05-23T16:12:34.638Z,20.00
2019-05-23T16:15:04.946Z,20.10
2019-05-23T16:17:34.315Z,20.20
2019-05-23T16:20:03.266Z,20.70
2019-05-23T16:22:32.487Z,20.90
2019-05-23T16:25:01.450Z,20.30
2019-05-23T16:27:31.167Z,20.50
2019-05-23T16:30:00.238Z,20.30
2019-05-23T16:32:29.739Z,20.50
2019-05-23T16:34:58.947Z,20.70
2019-05-23T16:37:28.062Z,20.50
2019-05-23T16:39:57.515Z,20.10
2019-05-23T16:42:27.038Z,20.30
2019-05-23T16:44:56.303Z,20.60
2019-05-23T16:47:25.367Z,20.60
2019-05-23T16:49:54.203Z,20.20
2019-05-23T16:52:23.563Z,19.90
2019-05-23T16:54:54.576Z,20.10
2019-05-23T16:57:40.997Z,20.10
2019-05-23T17:00:42.578Z,20.20
2019-05-23T17:03:29.991Z,20.30
2019-05-23T17:06:07.210Z,20.20
2019-05-23T17:09:02.970Z,19.90
2019-05-23T17:11:43.674Z,19.50
2019-05-23T17:14:35.871Z,19.40
2019-05-23T17:17:56.678Z,19.70
2019-05-23T17:20:19.659Z,19.90
2019-05-23T17:23:00.790Z,19.50
2019-05-23T17:26:04.601Z,19.30
2019-05-23T17:28:39.713Z,19.40
2019-05-23T17:31:12.229Z,19.40
2019-05-23T17:33:41.582Z,19.70
2019-05-23T17:36:10.962Z,20.10
2019-05-23T17:38:39.819Z,20.60
2019-05-23T17:41:10.358Z,20.80
2019-05-23T17:43:39.389Z,21.70
2019-05-23T17:46:08.375Z,22.70
2019-05-23T17:48:37.491Z,23.70
2019-05-23T17:51:06.414Z,24.00
2019-05-23T17:53:35.549Z,24.50
2019-05-23T17:56:05.136Z,25.40
2019-05-23T17:58:34.070Z,24.50
2019-05-23T18:01:03.576Z,24.60
2019-05-23T18:03:32.857Z,25.10
2019-05-23T18:06:02.347Z,24.50
2019-05-23T18:08:32.290Z,25.00
2019-05-23T18:11:01.690Z,25.10
2019-05-23T18:13:31.474Z,25.70
2019-05-23T18:16:00.257Z,25.30
2019-05-23T18:18:29.367Z,25.50
2019-05-23T18:20:59.250Z,25.20
2019-05-23T18:23:28.377Z,23.80
2019-05-23T18:25:58.106Z,23.40
2019-05-23T18:28:28.043Z,22.50
2019-05-23T18:31:12.409Z,21.10
2019-05-23T18:33:42.433Z,19.60
2019-05-23T18:36:11.392Z,18.90
2019-05-23T18:38:40.548Z,18.30
2019-05-23T18:41:10.384Z,18.00
2019-05-23T18:43:40.386Z,17.70
2019-05-23T18:46:14.717Z,17.40
2019-05-23T18:48:43.737Z,17.30
2019-05-23T18:51:13.793Z,17.10
2019-05-23T18:53:42.772Z,17.00
2019-05-23T18:56:11.911Z,16.90
2019-05-23T18:58:41.010Z,16.80
2019-05-23T19:01:13.745Z,16.70
2019-05-23T19:03:43.370Z,16.60
2019-05-23T19:06:12.190Z,16.40
2019-05-23T19:08:42.309Z,16.30
2019-05-23T19:11:20.725Z,16.20
2019-05-23T19:13:42.455Z,16.00
2019-05-23T19:16:11.939Z,15.90
2019-05-23T19:18:41.487Z,15.80
2019-05-23T19:21:11.431Z,15.70
2019-05-23T19:23:40.525Z,15.50
2019-05-23T19:26:09.809Z,15.30
2019-05-23T19:28:39.198Z,15.20
2019-05-23T19:31:08.244Z,15.10
2019-05-23T19:33:38.238Z,14.90
2019-05-23T19:36:07.591Z,14.80
2019-05-23T19:38:36.927Z,14.70
2019-05-23T19:41:07.420Z,14.60
2019-05-23T19:43:36.934Z,14.50
2019-05-23T19:46:06.237Z,14.40
2019-05-23T19:48:36.766Z,14.30
2019-05-23T19:51:06.072Z,14.20
2019-05-23T19:53:35.464Z,14.10
2019-05-23T19:56:05.503Z,14.00
2019-05-23T19:58:35.089Z,13.90
2019-05-23T20:01:05.389Z,13.80
2019-05-23T20:03:34.534Z,13.70
2019-05-23T20:06:04.153Z,13.60
2019-05-23T20:08:33.573Z,13.60
2019-05-23T20:11:03.203Z,13.50
2019-05-23T20:13:32.316Z,13.30
2019-05-23T20:15:59.625Z,13.30
2019-05-23T20:18:28.590Z,13.20
2019-05-23T20:20:57.889Z,13.10
2019-05-23T20:23:26.718Z,13.10
2019-05-23T20:25:55.898Z,13.10
2019-05-23T20:28:25.923Z,13.10
2019-05-23T20:30:56.278Z,13.30
2019-05-23T20:33:25.484Z,13.40
2019-05-23T20:35:54.296Z,13.50
2019-05-23T20:38:24.522Z,13.50
2019-05-23T20:40:54.323Z,13.60
2019-05-23T20:43:23.703Z,13.40
2019-05-23T20:45:52.997Z,13.30
2019-05-23T20:48:24.060Z,13.30
2019-05-23T20:50:53.667Z,13.20
2019-05-23T20:53:23.101Z,13.00
2019-05-23T20:55:52.164Z,12.80
2019-05-23T20:58:21.200Z,12.60
2019-05-23T21:00:57.997Z,12.30
2019-05-23T21:03:28.265Z,12.10
2019-05-23T21:05:58.596Z,12.10
2019-05-23T21:08:27.506Z,11.90
2019-05-23T21:10:56.362Z,11.90
2019-05-23T21:13:25.553Z,11.80
2019-05-23T21:15:54.774Z,11.70
2019-05-23T21:18:23.723Z,11.70
2019-05-23T21:20:52.738Z,11.60
2019-05-23T21:23:21.669Z,12.00
2019-05-23T21:25:57.695Z,12.20
2019-05-23T21:28:26.914Z,12.00
2019-05-23T21:30:55.934Z,12.10
2019-05-23T21:33:24.887Z,11.90
2019-05-23T21:35:53.796Z,11.70
2019-05-23T21:38:22.686Z,11.70
2019-05-23T21:40:51.633Z,11.50
2019-05-23T21:43:20.790Z,11.50
2019-05-23T21:45:50.250Z,11.40
2019-05-23T21:48:19.386Z,11.20
2019-05-23T21:50:48.549Z,11.10
2019-05-23T21:53:17.505Z,11.00
2019-05-23T21:55:46.317Z,10.90
2019-05-23T21:58:15.369Z,10.80
2019-05-23T22:01:23.559Z,10.70
2019-05-23T22:03:59.792Z,10.60
2019-05-23T22:06:29.838Z,10.50
2019-05-23T22:08:59.407Z,10.40
2019-05-23T22:11:28.548Z,10.40
2019-05-23T22:13:57.422Z,10.40
2019-05-23T22:16:27.032Z,10.30
2019-05-23T22:18:56.005Z,10.30
2019-05-23T22:21:24.900Z,10.30
2019-05-23T22:23:53.779Z,10.30
2019-05-23T22:26:23.199Z,10.20
2019-05-23T22:28:52.503Z,10.20
2019-05-23T22:31:22.628Z,10.30
2019-05-23T22:33:57.634Z,10.30
2019-05-23T22:36:26.854Z,10.30
2019-05-23T22:38:56.357Z,10.20
2019-05-23T22:41:25.667Z,10.20
2019-05-23T22:43:55.029Z,10.20
2019-05-23T22:46:24.586Z,10.30
2019-05-23T22:48:53.452Z,10.30
2019-05-23T22:51:22.223Z,10.10
2019-05-23T22:53:51.059Z,10.00
2019-05-23T22:56:19.831Z,9.90
2019-05-23T22:58:48.885Z,9.80
2019-05-23T23:01:18.370Z,9.70
2019-05-23T23:03:47.794Z,9.70
2019-05-23T23:06:16.922Z,9.70
2019-05-23T23:08:46.080Z,9.70
2019-05-23T23:11:15.428Z,9.60
2019-05-23T23:13:44.275Z,9.70
2019-05-23T23:16:13.435Z,9.80
2019-05-23T23:18:42.345Z,9.80
2019-05-23T23:21:11.775Z,9.70
2019-05-23T23:23:40.591Z,9.80
2019-05-23T23:26:09.699Z,9.90
2019-05-23T23:28:38.538Z,9.70
2019-05-23T23:31:07.696Z,9.60
2019-05-23T23:33:37.083Z,9.40
2019-05-23T23:36:05.946Z,9.30
2019-05-23T23:38:34.793Z,9.20
2019-05-23T23:41:03.907Z,9.10
2019-05-23T23:43:32.761Z,9.00
2019-05-23T23:46:19.702Z,9.00
2019-05-23T23:49:06.828Z,9.00
2019-05-23T23:51:53.482Z,9.00
2019-05-23T23:54:40.407Z,8.90
2019-05-23T23:57:27.423Z,8.80
2019-05-23T23:59:55.809Z,8.70
